sensor_id;sensor_type;location;lat;lon;timestamp;P1;durP1;ratioP1;P2;durP2;ratioP2
31454;SDS011;18084;53.028;8.834;2022-08-19T00:00:13;11.85;;;9.68;;
31454;SDS011;18084;53.028;8.834;2022-08-19T00:02:40;10.13;;;9.10;;
31454;SDS011;18084;53.028;8.834;2022-08-19T00:05:06;10.55;;;9.52;;
31454;SDS011;18084;53.028;8.834;2022-08-19T00:07:33;12.93;;;10.85;;
31454;SDS011;18084;53.028;8.834;2022-08-19T00:12:24;15.40;;;10.20;;
31454;SDS011;18084;53.028;8.834;2022-08-19T00:17:15;15.15;;;10.38;;
31454;SDS011;18084;53.028;8.834;2022-08-19T00:22:06;19.55;;;11.60;;
31454;SDS011;18084;53.028;8.834;2022-08-19T00:24:33;20.63;;;13.88;;
31454;SDS011;18084;53.028;8.834;2022-08-19T00:27:00;19.80;;;13.68;;
31454;SDS011;18084;53.028;8.834;2022-08-19T00:29:27;18.38;;;14.25;;
31454;SDS011;18084;53.028;8.834;2022-08-19T00:34:20;19.58;;;14.43;;
31454;SDS011;18084;53.028;8.834;2022-08-19T00:36:46;15.68;;;13.27;;
31454;SDS011;18084;53.028;8.834;2022-08-19T00:39:14;19.83;;;15.55;;
31454;SDS011;18084;53.028;8.834;2022-08-19T00:41:40;19.02;;;15.80;;
31454;SDS011;18084;53.028;8.834;2022-08-19T00:44:09;27.05;;;15.57;;
31454;SDS011;18084;53.028;8.834;2022-08-19T00:46:38;21.30;;;16.17;;
31454;SDS011;18084;53.028;8.834;2022-08-19T00:49:06;22.73;;;17.05;;
31454;SDS011;18084;53.028;8.834;2022-08-19T00:52:00;23.17;;;16.08;;
31454;SDS011;18084;53.028;8.834;2022-08-19T00:54:29;24.10;;;17.35;;
31454;SDS011;18084;53.028;8.834;2022-08-19T00:56:56;20.90;;;15.77;;
31454;SDS011;18084;53.028;8.834;2022-08-19T00:59:23;21.13;;;15.85;;
31454;SDS011;18084;53.028;8.834;2022-08-19T01:01:50;25.92;;;17.75;;
31454;SDS011;18084;53.028;8.834;2022-08-19T01:06:41;26.20;;;17.58;;
31454;SDS011;18084;53.028;8.834;2022-08-19T01:11:41;23.80;;;17.40;;
31454;SDS011;18084;53.028;8.834;2022-08-19T01:14:09;27.27;;;17.02;;
31454;SDS011;18084;53.028;8.834;2022-08-19T01:19:02;26.50;;;17.08;;
31454;SDS011;18084;53.028;8.834;2022-08-19T01:21:41;27.40;;;17.65;;
31454;SDS011;18084;53.028;8.834;2022-08-19T01:24:17;22.85;;;15.60;;
31454;SDS011;18084;53.028;8.834;2022-08-19T01:29:09;24.83;;;17.47;;
31454;SDS011;18084;53.028;8.834;2022-08-19T01:31:35;19.80;;;16.23;;
31454;SDS011;18084;53.028;8.834;2022-08-19T01:34:03;23.55;;;16.00;;
31454;SDS011;18084;53.028;8.834;2022-08-19T01:36:31;26.30;;;16.00;;
31454;SDS011;18084;53.028;8.834;2022-08-19T01:38:59;25.45;;;15.27;;
31454;SDS011;18084;53.028;8.834;2022-08-19T01:41:29;15.60;;;13.77;;
31454;SDS011;18084;53.028;8.834;2022-08-19T01:46:21;21.38;;;15.38;;
31454;SDS011;18084;53.028;8.834;2022-08-19T01:51:15;22.00;;;14.43;;
31454;SDS011;18084;53.028;8.834;2022-08-19T01:56:08;27.95;;;14.13;;
31454;SDS011;18084;53.028;8.834;2022-08-19T01:58:38;20.98;;;13.82;;
31454;SDS011;18084;53.028;8.834;2022-08-19T02:01:17;20.63;;;12.85;;
31454;SDS011;18084;53.028;8.834;2022-08-19T02:06:08;22.23;;;13.48;;
31454;SDS011;18084;53.028;8.834;2022-08-19T02:11:01;13.95;;;12.00;;
31454;SDS011;18084;53.028;8.834;2022-08-19T02:15:52;19.90;;;13.10;;
31454;SDS011;18084;53.028;8.834;2022-08-19T02:20:44;18.88;;;14.13;;
31454;SDS011;18084;53.028;8.834;2022-08-19T02:25:36;17.73;;;13.65;;
31454;SDS011;18084;53.028;8.834;2022-08-19T02:28:03;15.35;;;13.15;;
31454;SDS011;18084;53.028;8.834;2022-08-19T02:30:29;19.95;;;12.68;;
31454;SDS011;18084;53.028;8.834;2022-08-19T02:35:21;15.52;;;13.80;;
31454;SDS011;18084;53.028;8.834;2022-08-19T02:40:31;20.38;;;14.43;;
31454;SDS011;18084;53.028;8.834;2022-08-19T02:43:04;26.48;;;14.82;;
31454;SDS011;18084;53.028;8.834;2022-08-19T02:45:35;19.48;;;13.82;;
31454;SDS011;18084;53.028;8.834;2022-08-19T02:48:02;24.20;;;14.07;;
31454;SDS011;18084;53.028;8.834;2022-08-19T02:50:29;18.65;;;13.68;;
31454;SDS011;18084;53.028;8.834;2022-08-19T02:52:56;15.50;;;13.90;;
31454;SDS011;18084;53.028;8.834;2022-08-19T02:57:47;18.20;;;13.52;;
31454;SDS011;18084;53.028;8.834;2022-08-19T03:02:39;19.38;;;13.25;;
31454;SDS011;18084;53.028;8.834;2022-08-19T03:05:05;24.73;;;13.70;;
31454;SDS011;18084;53.028;8.834;2022-08-19T03:07:32;15.80;;;13.75;;
31454;SDS011;18084;53.028;8.834;2022-08-19T03:10:01;17.40;;;13.98;;
31454;SDS011;18084;53.028;8.834;2022-08-19T03:12:27;14.73;;;13.18;;
31454;SDS011;18084;53.028;8.834;2022-08-19T03:17:19;20.85;;;14.27;;
31454;SDS011;18084;53.028;8.834;2022-08-19T03:19:45;16.77;;;14.00;;
31454;SDS011;18084;53.028;8.834;2022-08-19T03:24:36;23.63;;;14.50;;
31454;SDS011;18084;53.028;8.834;2022-08-19T03:27:03;16.92;;;13.48;;
31454;SDS011;18084;53.028;8.834;2022-08-19T05:05:18;28.98;;;20.63;;
31454;SDS011;18084;53.028;8.834;2022-08-19T05:07:44;27.20;;;21.30;;
31454;SDS011;18084;53.028;8.834;2022-08-19T05:12:36;26.35;;;20.05;;
31454;SDS011;18084;53.028;8.834;2022-08-19T05:17:30;31.52;;;20.27;;
31454;SDS011;18084;53.028;8.834;2022-08-19T05:22:41;26.15;;;19.73;;
31454;SDS011;18084;53.028;8.834;2022-08-19T05:25:08;29.85;;;20.67;;
31454;SDS011;18084;53.028;8.834;2022-08-19T05:27:40;28.58;;;19.92;;
31454;SDS011;18084;53.028;8.834;2022-08-19T05:30:07;28.98;;;20.80;;
31454;SDS011;18084;53.028;8.834;2022-08-19T05:32:33;23.33;;;19.45;;
31454;SDS011;18084;53.028;8.834;2022-08-19T05:37:24;26.92;;;20.45;;
31454;SDS011;18084;53.028;8.834;2022-08-19T05:39:52;26.35;;;19.73;;
31454;SDS011;18084;53.028;8.834;2022-08-19T05:42:19;28.17;;;20.33;;
31454;SDS011;18084;53.028;8.834;2022-08-19T05:44:47;26.88;;;20.00;;
31454;SDS011;18084;53.028;8.834;2022-08-19T05:47:14;29.02;;;20.83;;
31454;SDS011;18084;53.028;8.834;2022-08-19T05:49:43;25.48;;;19.23;;
31454;SDS011;18084;53.028;8.834;2022-08-19T05:52:19;27.02;;;20.60;;
31454;SDS011;18084;53.028;8.834;2022-08-19T05:59:41;29.80;;;19.92;;
31454;SDS011;18084;53.028;8.834;2022-08-19T06:02:07;20.80;;;16.95;;
31454;SDS011;18084;53.028;8.834;2022-08-19T06:04:32;27.42;;;17.70;;
31454;SDS011;18084;53.028;8.834;2022-08-19T06:06:58;20.83;;;16.52;;
31454;SDS011;18084;53.028;8.834;2022-08-19T06:09:24;18.42;;;15.95;;
31454;SDS011;18084;53.028;8.834;2022-08-19T06:11:51;22.35;;;18.25;;
31454;SDS011;18084;53.028;8.834;2022-08-19T06:14:19;23.27;;;17.15;;
31454;SDS011;18084;53.028;8.834;2022-08-19T06:16:47;21.60;;;16.80;;
31454;SDS011;18084;53.028;8.834;2022-08-19T06:19:15;19.67;;;16.13;;
31454;SDS011;18084;53.028;8.834;2022-08-19T06:21:43;28.35;;;16.23;;
31454;SDS011;18084;53.028;8.834;2022-08-19T06:24:10;22.35;;;15.73;;
31454;SDS011;18084;53.028;8.834;2022-08-19T06:26:39;23.50;;;15.55;;
31454;SDS011;18084;53.028;8.834;2022-08-19T06:29:07;23.60;;;16.73;;
31454;SDS011;18084;53.028;8.834;2022-08-19T06:31:34;19.92;;;16.00;;
31454;SDS011;18084;53.028;8.834;2022-08-19T06:34:02;19.83;;;15.63;;
31454;SDS011;18084;53.028;8.834;2022-08-19T06:36:32;25.02;;;15.65;;
31454;SDS011;18084;53.028;8.834;2022-08-19T06:39:10;22.55;;;14.82;;
31454;SDS011;18084;53.028;8.834;2022-08-19T06:41:39;19.38;;;14.70;;
31454;SDS011;18084;53.028;8.834;2022-08-19T06:44:07;18.58;;;13.25;;
31454;SDS011;18084;53.028;8.834;2022-08-19T06:46:33;17.67;;;14.38;;
31454;SDS011;18084;53.028;8.834;2022-08-19T06:49:00;27.30;;;13.73;;
31454;SDS011;18084;53.028;8.834;2022-08-19T06:51:26;19.65;;;13.02;;
31454;SDS011;18084;53.028;8.834;2022-08-19T06:53:52;20.52;;;14.38;;
31454;SDS011;18084;53.028;8.834;2022-08-19T06:56:20;21.27;;;13.63;;
31454;SDS011;18084;53.028;8.834;2022-08-19T06:58:58;23.42;;;15.38;;
31454;SDS011;18084;53.028;8.834;2022-08-19T07:01:25;20.80;;;14.98;;
31454;SDS011;18084;53.028;8.834;2022-08-19T07:03:51;17.95;;;15.20;;
31454;SDS011;18084;53.028;8.834;2022-08-19T07:06:16;17.75;;;13.95;;
31454;SDS011;18084;53.028;8.834;2022-08-19T07:08:44;22.10;;;14.55;;
31454;SDS011;18084;53.028;8.834;2022-08-19T07:11:12;23.23;;;13.55;;
31454;SDS011;18084;53.028;8.834;2022-08-19T07:13:39;27.38;;;13.95;;
31454;SDS011;18084;53.028;8.834;2022-08-19T07:16:08;24.02;;;12.52;;
31454;SDS011;18084;53.028;8.834;2022-08-19T07:18:37;19.35;;;12.38;;
31454;SDS011;18084;53.028;8.834;2022-08-19T07:21:04;17.15;;;12.27;;
31454;SDS011;18084;53.028;8.834;2022-08-19T07:23:34;26.10;;;12.38;;
31454;SDS011;18084;53.028;8.834;2022-08-19T07:28:40;16.42;;;10.68;;
31454;SDS011;18084;53.028;8.834;2022-08-19T07:31:08;78.25;;;11.98;;
31454;SDS011;18084;53.028;8.834;2022-08-19T07:33:36;12.07;;;9.05;;
31454;SDS011;18084;53.028;8.834;2022-08-19T07:36:05;12.30;;;7.65;;
31454;SDS011;18084;53.028;8.834;2022-08-19T07:38:32;9.45;;;8.10;;
31454;SDS011;18084;53.028;8.834;2022-08-19T07:40:59;21.35;;;9.20;;
31454;SDS011;18084;53.028;8.834;2022-08-19T07:43:25;13.35;;;8.30;;
31454;SDS011;18084;53.028;8.834;2022-08-19T07:45:52;9.35;;;6.05;;
31454;SDS011;18084;53.028;8.834;2022-08-19T07:48:22;7.32;;;5.65;;
31454;SDS011;18084;53.028;8.834;2022-08-19T07:50:52;9.85;;;5.20;;
31454;SDS011;18084;53.028;8.834;2022-08-19T07:53:19;7.15;;;4.97;;
31454;SDS011;18084;53.028;8.834;2022-08-19T07:55:45;9.02;;;5.13;;
31454;SDS011;18084;53.028;8.834;2022-08-19T07:58:12;9.05;;;5.13;;
31454;SDS011;18084;53.028;8.834;2022-08-19T08:00:41;9.15;;;5.80;;
31454;SDS011;18084;53.028;8.834;2022-08-19T08:03:08;7.22;;;5.47;;
31454;SDS011;18084;53.028;8.834;2022-08-19T08:05:34;7.50;;;4.72;;
31454;SDS011;18084;53.028;8.834;2022-08-19T08:08:19;7.80;;;4.50;;
31454;SDS011;18084;53.028;8.834;2022-08-19T08:11:04;10.82;;;5.18;;
31454;SDS011;18084;53.028;8.834;2022-08-19T08:13:30;5.15;;;4.65;;
31454;SDS011;18084;53.028;8.834;2022-08-19T08:15:56;10.95;;;4.05;;
31454;SDS011;18084;53.028;8.834;2022-08-19T08:18:23;8.75;;;2.97;;
31454;SDS011;18084;53.028;8.834;2022-08-19T08:20:49;3.75;;;2.83;;
31454;SDS011;18084;53.028;8.834;2022-08-19T08:23:15;4.40;;;2.00;;
31454;SDS011;18084;53.028;8.834;2022-08-19T08:25:51;3.03;;;1.87;;
31454;SDS011;18084;53.028;8.834;2022-08-19T08:28:19;3.65;;;2.03;;
31454;SDS011;18084;53.028;8.834;2022-08-19T08:30:46;2.28;;;1.80;;
31454;SDS011;18084;53.028;8.834;2022-08-19T08:33:12;3.63;;;2.50;;
31454;SDS011;18084;53.028;8.834;2022-08-19T08:35:41;2.35;;;2.00;;
31454;SDS011;18084;53.028;8.834;2022-08-19T08:38:07;5.22;;;2.08;;
31454;SDS011;18084;53.028;8.834;2022-08-19T08:43:24;3.20;;;1.70;;
31454;SDS011;18084;53.028;8.834;2022-08-19T08:51:18;2.72;;;2.00;;
31454;SDS011;18084;53.028;8.834;2022-08-19T08:53:49;4.00;;;1.65;;
31454;SDS011;18084;53.028;8.834;2022-08-19T08:56:19;4.30;;;2.08;;
31454;SDS011;18084;53.028;8.834;2022-08-19T08:58:48;4.85;;;2.00;;
31454;SDS011;18084;53.028;8.834;2022-08-19T09:01:31;2.20;;;1.58;;
31454;SDS011;18084;53.028;8.834;2022-08-19T09:03:57;2.78;;;2.28;;
31454;SDS011;18084;53.028;8.834;2022-08-19T09:06:29;2.13;;;1.70;;
31454;SDS011;18084;53.028;8.834;2022-08-19T09:09:05;7.82;;;1.80;;
31454;SDS011;18084;53.028;8.834;2022-08-19T09:14:50;2.40;;;1.60;;
31454;SDS011;18084;53.028;8.834;2022-08-19T09:17:22;2.75;;;1.60;;
31454;SDS011;18084;53.028;8.834;2022-08-19T09:22:41;3.25;;;2.15;;
31454;SDS011;18084;53.028;8.834;2022-08-19T09:25:11;4.53;;;1.88;;
31454;SDS011;18084;53.028;8.834;2022-08-19T09:27:41;2.42;;;2.00;;
31454;SDS011;18084;53.028;8.834;2022-08-19T09:30:09;2.22;;;1.60;;
31454;SDS011;18084;53.028;8.834;2022-08-19T09:32:37;5.38;;;2.10;;
31454;SDS011;18084;53.028;8.834;2022-08-19T09:35:07;5.30;;;2.05;;
31454;SDS011;18084;53.028;8.834;2022-08-19T09:37:33;2.33;;;1.90;;
31454;SDS011;18084;53.028;8.834;2022-08-19T09:39:59;2.95;;;2.20;;
31454;SDS011;18084;53.028;8.834;2022-08-19T09:42:24;3.40;;;2.33;;
31454;SDS011;18084;53.028;8.834;2022-08-19T09:44:50;7.40;;;2.05;;
31454;SDS011;18084;53.028;8.834;2022-08-19T09:47:15;2.90;;;1.52;;
31454;SDS011;18084;53.028;8.834;2022-08-19T09:49:41;4.15;;;1.55;;
31454;SDS011;18084;53.028;8.834;2022-08-19T09:52:10;4.13;;;1.55;;
31454;SDS011;18084;53.028;8.834;2022-08-19T09:54:36;3.60;;;1.67;;
31454;SDS011;18084;53.028;8.834;2022-08-19T09:57:03;2.60;;;1.38;;
31454;SDS011;18084;53.028;8.834;2022-08-19T09:59:28;2.15;;;1.35;;
31454;SDS011;18084;53.028;8.834;2022-08-19T10:01:54;1.92;;;1.45;;
31454;SDS011;18084;53.028;8.834;2022-08-19T10:04:20;4.57;;;1.75;;
31454;SDS011;18084;53.028;8.834;2022-08-19T10:06:46;2.58;;;1.38;;
31454;SDS011;18084;53.028;8.834;2022-08-19T10:09:12;7.07;;;1.63;;
31454;SDS011;18084;53.028;8.834;2022-08-19T10:11:40;2.20;;;1.15;;
31454;SDS011;18084;53.028;8.834;2022-08-19T10:14:07;3.60;;;1.65;;
31454;SDS011;18084;53.028;8.834;2022-08-19T10:16:33;2.08;;;1.73;;
31454;SDS011;18084;53.028;8.834;2022-08-19T10:19:01;4.13;;;1.42;;
31454;SDS011;18084;53.028;8.834;2022-08-19T10:21:29;3.28;;;1.15;;
31454;SDS011;18084;53.028;8.834;2022-08-19T10:23:57;3.45;;;1.35;;
31454;SDS011;18084;53.028;8.834;2022-08-19T10:26:30;5.78;;;1.40;;
31454;SDS011;18084;53.028;8.834;2022-08-19T10:28:58;5.05;;;1.30;;
31454;SDS011;18084;53.028;8.834;2022-08-19T10:31:26;5.13;;;1.60;;
31454;SDS011;18084;53.028;8.834;2022-08-19T10:33:54;2.60;;;1.25;;
31454;SDS011;18084;53.028;8.834;2022-08-19T10:36:23;4.45;;;1.35;;
31454;SDS011;18084;53.028;8.834;2022-08-19T10:38:51;3.08;;;1.27;;
31454;SDS011;18084;53.028;8.834;2022-08-19T10:41:22;6.68;;;1.58;;
31454;SDS011;18084;53.028;8.834;2022-08-19T10:43:56;7.50;;;1.80;;
31454;SDS011;18084;53.028;8.834;2022-08-19T10:46:25;4.67;;;1.63;;
31454;SDS011;18084;53.028;8.834;2022-08-19T10:48:53;2.47;;;1.42;;
31454;SDS011;18084;53.028;8.834;2022-08-19T10:51:19;7.05;;;1.48;;
31454;SDS011;18084;53.028;8.834;2022-08-19T10:54:03;4.65;;;1.63;;
31454;SDS011;18084;53.028;8.834;2022-08-19T10:56:29;4.65;;;1.40;;
31454;SDS011;18084;53.028;8.834;2022-08-19T10:59:15;5.13;;;2.08;;
31454;SDS011;18084;53.028;8.834;2022-08-19T11:01:42;1.92;;;1.30;;
31454;SDS011;18084;53.028;8.834;2022-08-19T11:04:09;3.40;;;1.10;;
31454;SDS011;18084;53.028;8.834;2022-08-19T11:06:36;2.15;;;1.40;;
31454;SDS011;18084;53.028;8.834;2022-08-19T11:09:03;3.15;;;1.40;;
31454;SDS011;18084;53.028;8.834;2022-08-19T11:11:30;4.85;;;1.65;;
31454;SDS011;18084;53.028;8.834;2022-08-19T11:13:57;3.08;;;1.55;;
31454;SDS011;18084;53.028;8.834;2022-08-19T11:16:23;2.85;;;1.40;;
31454;SDS011;18084;53.028;8.834;2022-08-19T11:18:52;1.58;;;1.20;;
31454;SDS011;18084;53.028;8.834;2022-08-19T11:21:21;1.58;;;1.15;;
31454;SDS011;18084;53.028;8.834;2022-08-19T11:23:50;7.50;;;1.40;;
31454;SDS011;18084;53.028;8.834;2022-08-19T11:26:18;3.63;;;1.35;;
31454;SDS011;18084;53.028;8.834;2022-08-19T11:28:44;2.03;;;1.20;;
31454;SDS011;18084;53.028;8.834;2022-08-19T11:31:15;5.20;;;1.40;;
31454;SDS011;18084;53.028;8.834;2022-08-19T11:33:43;4.75;;;1.40;;
31454;SDS011;18084;53.028;8.834;2022-08-19T11:36:10;2.83;;;1.35;;
31454;SDS011;18084;53.028;8.834;2022-08-19T11:38:36;2.78;;;1.20;;
31454;SDS011;18084;53.028;8.834;2022-08-19T11:41:04;6.13;;;1.67;;
31454;SDS011;18084;53.028;8.834;2022-08-19T11:43:32;2.70;;;1.10;;
31454;SDS011;18084;53.028;8.834;2022-08-19T11:45:58;8.00;;;1.27;;
31454;SDS011;18084;53.028;8.834;2022-08-19T11:48:24;3.45;;;1.75;;
31454;SDS011;18084;53.028;8.834;2022-08-19T11:50:51;3.28;;;1.38;;
31454;SDS011;18084;53.028;8.834;2022-08-19T11:53:18;3.20;;;1.33;;
31454;SDS011;18084;53.028;8.834;2022-08-19T11:55:45;6.18;;;1.77;;
31454;SDS011;18084;53.028;8.834;2022-08-19T11:58:12;6.88;;;1.38;;
31454;SDS011;18084;53.028;8.834;2022-08-19T12:00:39;3.25;;;1.13;;
31454;SDS011;18084;53.028;8.834;2022-08-19T12:03:05;3.65;;;1.10;;
31454;SDS011;18084;53.028;8.834;2022-08-19T12:05:30;3.60;;;1.10;;
31454;SDS011;18084;53.028;8.834;2022-08-19T12:07:56;3.20;;;0.95;;
31454;SDS011;18084;53.028;8.834;2022-08-19T12:10:22;1.08;;;0.80;;
31454;SDS011;18084;53.028;8.834;2022-08-19T12:12:48;2.22;;;1.08;;
31454;SDS011;18084;53.028;8.834;2022-08-19T12:15:13;1.77;;;0.85;;
31454;SDS011;18084;53.028;8.834;2022-08-19T12:17:39;4.53;;;1.10;;
31454;SDS011;18084;53.028;8.834;2022-08-19T12:20:07;3.97;;;1.15;;
31454;SDS011;18084;53.028;8.834;2022-08-19T12:22:35;2.28;;;1.02;;
31454;SDS011;18084;53.028;8.834;2022-08-19T12:25:02;3.15;;;0.80;;
31454;SDS011;18084;53.028;8.834;2022-08-19T12:27:30;1.33;;;0.90;;
31454;SDS011;18084;53.028;8.834;2022-08-19T12:29:55;1.00;;;0.80;;
31454;SDS011;18084;53.028;8.834;2022-08-19T12:32:22;1.30;;;0.90;;
31454;SDS011;18084;53.028;8.834;2022-08-19T12:34:48;1.27;;;0.93;;
31454;SDS011;18084;53.028;8.834;2022-08-19T12:37:14;1.08;;;0.90;;
31454;SDS011;18084;53.028;8.834;2022-08-19T12:39:40;1.75;;;1.10;;
31454;SDS011;18084;53.028;8.834;2022-08-19T12:42:07;1.75;;;0.80;;
31454;SDS011;18084;53.028;8.834;2022-08-19T12:44:33;1.42;;;0.80;;
31454;SDS011;18084;53.028;8.834;2022-08-19T12:47:00;1.13;;;0.93;;
31454;SDS011;18084;53.028;8.834;2022-08-19T12:49:28;1.35;;;0.70;;
31454;SDS011;18084;53.028;8.834;2022-08-19T12:51:54;1.45;;;0.90;;
31454;SDS011;18084;53.028;8.834;2022-08-19T12:54:21;3.58;;;0.90;;
31454;SDS011;18084;53.028;8.834;2022-08-19T12:56:51;1.67;;;0.80;;
31454;SDS011;18084;53.028;8.834;2022-08-19T12:59:17;2.63;;;0.90;;
31454;SDS011;18084;53.028;8.834;2022-08-19T13:01:44;1.38;;;1.05;;
31454;SDS011;18084;53.028;8.834;2022-08-19T13:04:10;0.73;;;0.70;;
31454;SDS011;18084;53.028;8.834;2022-08-19T13:06:36;7.07;;;0.95;;
31454;SDS011;18084;53.028;8.834;2022-08-19T13:09:02;4.22;;;1.00;;
31454;SDS011;18084;53.028;8.834;2022-08-19T13:11:29;2.75;;;0.77;;
31454;SDS011;18084;53.028;8.834;2022-08-19T13:13:57;3.13;;;0.90;;
31454;SDS011;18084;53.028;8.834;2022-08-19T13:16:23;2.47;;;0.98;;
31454;SDS011;18084;53.028;8.834;2022-08-19T13:18:51;2.78;;;0.82;;
31454;SDS011;18084;53.028;8.834;2022-08-19T13:21:17;0.95;;;0.70;;
31454;SDS011;18084;53.028;8.834;2022-08-19T13:23:44;4.57;;;1.27;;
31454;SDS011;18084;53.028;8.834;2022-08-19T13:26:11;3.10;;;0.82;;
31454;SDS011;18084;53.028;8.834;2022-08-19T13:28:38;1.95;;;0.70;;
31454;SDS011;18084;53.028;8.834;2022-08-19T13:31:23;1.50;;;0.95;;
31454;SDS011;18084;53.028;8.834;2022-08-19T13:34:11;1.80;;;0.73;;
31454;SDS011;18084;53.028;8.834;2022-08-19T13:36:38;1.10;;;0.80;;
31454;SDS011;18084;53.028;8.834;2022-08-19T13:39:07;2.95;;;0.60;;
31454;SDS011;18084;53.028;8.834;2022-08-19T13:41:37;0.50;;;0.50;;
31454;SDS011;18084;53.028;8.834;2022-08-19T13:44:08;1.88;;;0.65;;
31454;SDS011;18084;53.028;8.834;2022-08-19T13:46:34;3.15;;;0.82;;
31454;SDS011;18084;53.028;8.834;2022-08-19T13:48:59;1.65;;;0.77;;
31454;SDS011;18084;53.028;8.834;2022-08-19T13:51:25;1.85;;;0.88;;
31454;SDS011;18084;53.028;8.834;2022-08-19T13:53:50;1.35;;;0.77;;
31454;SDS011;18084;53.028;8.834;2022-08-19T13:56:17;3.25;;;0.90;;
31454;SDS011;18084;53.028;8.834;2022-08-19T13:58:44;1.42;;;0.85;;
31454;SDS011;18084;53.028;8.834;2022-08-19T14:01:10;1.00;;;0.90;;
31454;SDS011;18084;53.028;8.834;2022-08-19T14:03:46;2.38;;;0.98;;
31454;SDS011;18084;53.028;8.834;2022-08-19T14:06:12;3.40;;;0.98;;
31454;SDS011;18084;53.028;8.834;2022-08-19T14:08:37;1.98;;;0.80;;
31454;SDS011;18084;53.028;8.834;2022-08-19T14:11:06;4.13;;;1.10;;
31454;SDS011;18084;53.028;8.834;2022-08-19T14:13:32;2.17;;;0.98;;
31454;SDS011;18084;53.028;8.834;2022-08-19T14:15:58;2.00;;;0.82;;
31454;SDS011;18084;53.028;8.834;2022-08-19T14:18:24;8.60;;;1.20;;
31454;SDS011;18084;53.028;8.834;2022-08-19T14:20:50;1.20;;;0.90;;
31454;SDS011;18084;53.028;8.834;2022-08-19T14:23:16;1.92;;;1.00;;
31454;SDS011;18084;53.028;8.834;2022-08-19T14:25:42;4.22;;;0.93;;
31454;SDS011;18084;53.028;8.834;2022-08-19T14:28:08;4.78;;;0.95;;
31454;SDS011;18084;53.028;8.834;2022-08-19T14:30:34;2.10;;;0.90;;
31454;SDS011;18084;53.028;8.834;2022-08-19T14:33:03;2.10;;;0.90;;
31454;SDS011;18084;53.028;8.834;2022-08-19T14:35:30;2.42;;;1.10;;
31454;SDS011;18084;53.028;8.834;2022-08-19T14:38:00;1.25;;;0.85;;
31454;SDS011;18084;53.028;8.834;2022-08-19T14:40:28;2.00;;;1.10;;
31454;SDS011;18084;53.028;8.834;2022-08-19T14:42:58;3.33;;;1.20;;
31454;SDS011;18084;53.028;8.834;2022-08-19T14:45:29;1.73;;;0.93;;
31454;SDS011;18084;53.028;8.834;2022-08-19T14:47:56;1.30;;;1.00;;
31454;SDS011;18084;53.028;8.834;2022-08-19T14:50:24;7.72;;;1.10;;
31454;SDS011;18084;53.028;8.834;2022-08-19T14:52:49;3.05;;;1.00;;
31454;SDS011;18084;53.028;8.834;2022-08-19T14:55:22;1.10;;;1.00;;
31454;SDS011;18084;53.028;8.834;2022-08-19T14:57:47;3.17;;;1.33;;
31454;SDS011;18084;53.028;8.834;2022-08-19T15:00:13;2.28;;;1.08;;
31454;SDS011;18084;53.028;8.834;2022-08-19T15:02:39;2.00;;;1.10;;
31454;SDS011;18084;53.028;8.834;2022-08-19T15:05:06;2.17;;;1.20;;
31454;SDS011;18084;53.028;8.834;2022-08-19T15:07:32;3.58;;;1.20;;
31454;SDS011;18084;53.028;8.834;2022-08-19T15:09:57;3.42;;;1.40;;
31454;SDS011;18084;53.028;8.834;2022-08-19T15:12:24;1.80;;;1.20;;
31454;SDS011;18084;53.028;8.834;2022-08-19T15:14:49;1.85;;;1.30;;
31454;SDS011;18084;53.028;8.834;2022-08-19T15:17:15;6.28;;;1.98;;
31454;SDS011;18084;53.028;8.834;2022-08-19T15:19:42;2.65;;;1.15;;
31454;SDS011;18084;53.028;8.834;2022-08-19T15:22:07;2.65;;;1.30;;
31454;SDS011;18084;53.028;8.834;2022-08-19T15:24:33;1.85;;;1.40;;
31454;SDS011;18084;53.028;8.834;2022-08-19T15:27:00;3.00;;;1.55;;
31454;SDS011;18084;53.028;8.834;2022-08-19T15:29:26;2.03;;;1.42;;
31454;SDS011;18084;53.028;8.834;2022-08-19T15:31:52;1.85;;;1.40;;
31454;SDS011;18084;53.028;8.834;2022-08-19T15:34:21;2.53;;;1.80;;
31454;SDS011;18084;53.028;8.834;2022-08-19T15:36:47;1.38;;;1.20;;
31454;SDS011;18084;53.028;8.834;2022-08-19T15:39:13;4.47;;;1.40;;
31454;SDS011;18084;53.028;8.834;2022-08-19T15:41:38;1.88;;;1.60;;
31454;SDS011;18084;53.028;8.834;2022-08-19T15:44:08;2.42;;;1.50;;
31454;SDS011;18084;53.028;8.834;2022-08-19T15:46:37;1.83;;;1.48;;
31454;SDS011;18084;53.028;8.834;2022-08-19T15:49:04;1.50;;;1.40;;
31454;SDS011;18084;53.028;8.834;2022-08-19T15:51:31;2.65;;;1.35;;
31454;SDS011;18084;53.028;8.834;2022-08-19T15:53:59;2.95;;;1.30;;
31454;SDS011;18084;53.028;8.834;2022-08-19T15:56:27;2.75;;;1.40;;
31454;SDS011;18084;53.028;8.834;2022-08-19T15:59:12;3.00;;;1.50;;
31454;SDS011;18084;53.028;8.834;2022-08-19T16:01:57;1.55;;;1.10;;
31454;SDS011;18084;53.028;8.834;2022-08-19T16:04:42;1.70;;;1.50;;
31454;SDS011;18084;53.028;8.834;2022-08-19T16:07:26;1.63;;;1.52;;
31454;SDS011;18084;53.028;8.834;2022-08-19T16:09:51;2.67;;;1.33;;
31454;SDS011;18084;53.028;8.834;2022-08-19T16:12:17;4.00;;;1.35;;
31454;SDS011;18084;53.028;8.834;2022-08-19T16:14:43;2.92;;;1.48;;
31454;SDS011;18084;53.028;8.834;2022-08-19T16:17:08;1.63;;;1.30;;
31454;SDS011;18084;53.028;8.834;2022-08-19T16:19:36;4.35;;;1.52;;
31454;SDS011;18084;53.028;8.834;2022-08-19T16:22:02;1.50;;;1.40;;
31454;SDS011;18084;53.028;8.834;2022-08-19T16:24:29;3.83;;;1.40;;
31454;SDS011;18084;53.028;8.834;2022-08-19T16:26:57;1.95;;;1.73;;
31454;SDS011;18084;53.028;8.834;2022-08-19T16:29:25;2.97;;;1.50;;
31454;SDS011;18084;53.028;8.834;2022-08-19T16:31:51;2.25;;;1.60;;
31454;SDS011;18084;53.028;8.834;2022-08-19T16:34:18;8.07;;;1.70;;
31454;SDS011;18084;53.028;8.834;2022-08-19T16:36:45;2.38;;;1.50;;
31454;SDS011;18084;53.028;8.834;2022-08-19T16:39:11;2.15;;;1.27;;
31454;SDS011;18084;53.028;8.834;2022-08-19T16:41:39;8.38;;;1.80;;
31454;SDS011;18084;53.028;8.834;2022-08-19T16:44:06;3.38;;;1.90;;
31454;SDS011;18084;53.028;8.834;2022-08-19T16:46:32;2.53;;;1.40;;
31454;SDS011;18084;53.028;8.834;2022-08-19T16:48:58;5.50;;;2.00;;
31454;SDS011;18084;53.028;8.834;2022-08-19T16:51:23;2.35;;;1.73;;
31454;SDS011;18084;53.028;8.834;2022-08-19T16:53:49;3.95;;;1.98;;
31454;SDS011;18084;53.028;8.834;2022-08-19T16:56:16;1.65;;;1.45;;
31454;SDS011;18084;53.028;8.834;2022-08-19T16:58:43;1.88;;;1.73;;
31454;SDS011;18084;53.028;8.834;2022-08-19T17:01:09;6.47;;;2.17;;
31454;SDS011;18084;53.028;8.834;2022-08-19T17:03:35;2.92;;;1.52;;
31454;SDS011;18084;53.028;8.834;2022-08-19T17:06:07;1.75;;;1.52;;
31454;SDS011;18084;53.028;8.834;2022-08-19T17:08:38;2.20;;;1.57;;
31454;SDS011;18084;53.028;8.834;2022-08-19T17:11:05;3.05;;;1.70;;
31454;SDS011;18084;53.028;8.834;2022-08-19T17:13:30;4.32;;;1.75;;
31454;SDS011;18084;53.028;8.834;2022-08-19T17:15:56;3.70;;;2.20;;
31454;SDS011;18084;53.028;8.834;2022-08-19T17:18:23;1.95;;;1.60;;
31454;SDS011;18084;53.028;8.834;2022-08-19T17:20:49;5.38;;;2.00;;
31454;SDS011;18084;53.028;8.834;2022-08-19T17:23:16;4.13;;;1.45;;
31454;SDS011;18084;53.028;8.834;2022-08-19T17:25:43;3.22;;;1.75;;
31454;SDS011;18084;53.028;8.834;2022-08-19T17:28:09;5.55;;;1.88;;
31454;SDS011;18084;53.028;8.834;2022-08-19T17:30:37;2.90;;;1.80;;
31454;SDS011;18084;53.028;8.834;2022-08-19T17:33:03;2.95;;;1.98;;
31454;SDS011;18084;53.028;8.834;2022-08-19T17:35:30;5.90;;;1.88;;
31454;SDS011;18084;53.028;8.834;2022-08-19T17:37:57;1.77;;;1.48;;
31454;SDS011;18084;53.028;8.834;2022-08-19T17:40:27;2.67;;;1.70;;
31454;SDS011;18084;53.028;8.834;2022-08-19T17:42:52;6.15;;;1.83;;